sensor_id;sensor_type;location;lat;lon;timestamp;pressure;altitude;pressure_sealevel;temperature;humidity
47166;BME280;32930;51.112;13.762;2023-02-03T00:00:46;100024.63;;;5.31;93.39
47166;BME280;32930;51.112;13.762;2023-02-03T00:03:12;100033.09;;;5.31;93.93
47166;BME280;32930;51.112;13.762;2023-02-03T00:05:39;100030.78;;;5.38;91.48
47166;BME280;32930;51.112;13.762;2023-02-03T00:08:07;100027.06;;;5.53;91.06
47166;BME280;32930;51.112;13.762;2023-02-03T00:10:35;100027.91;;;5.54;90.67
47166;BME280;32930;51.112;13.762;2023-02-03T00:13:02;100025.56;;;5.34;91.65
47166;BME280;32930;51.112;13.762;2023-02-03T00:15:27;100002.44;;;5.27;93.90
47166;BME280;32930;51.112;13.762;2023-02-03T00:17:53;100007.53;;;5.27;93.77
47166;BME280;32930;51.112;13.762;2023-02-03T00:27:03;100004.91;;;5.25;94.94
47166;BME280;32930;51.112;13.762;2023-02-03T00:29:28;99998.81;;;5.20;97.44
47166;BME280;32930;51.112;13.762;2023-02-03T00:31:54;100001.75;;;5.32;96.10
47166;BME280;32930;51.112;13.762;2023-02-03T00:34:20;99995.13;;;5.36;95.88
47166;BME280;32930;51.112;13.762;2023-02-03T00:39:19;99988.94;;;5.29;97.31
47166;BME280;32930;51.112;13.762;2023-02-03T00:41:44;99980.19;;;5.21;97.91
47166;BME280;32930;51.112;13.762;2023-02-03T00:50:08;99969.38;;;5.27;95.52
47166;BME280;32930;51.112;13.762;2023-02-03T00:52:34;99959.69;;;5.17;97.20
47166;BME280;32930;51.112;13.762;2023-02-03T00:55:00;99958.50;;;5.32;97.44
47166;BME280;32930;51.112;13.762;2023-02-03T00:57:25;99952.09;;;5.44;95.46
47166;BME280;32930;51.112;13.762;2023-02-03T01:12:41;99916.59;;;5.47;95.61
47166;BME280;32930;51.112;13.762;2023-02-03T01:15:08;99912.13;;;5.40;96.26
47166;BME280;32930;51.112;13.762;2023-02-03T01:17:33;99906.22;;;5.41;95.94
47166;BME280;32930;51.112;13.762;2023-02-03T01:19:59;99891.88;;;5.43;96.01
47166;BME280;32930;51.112;13.762;2023-02-03T01:37:50;99852.00;;;5.15;98.61
47166;BME280;32930;51.112;13.762;2023-02-03T01:40:15;99841.28;;;5.25;97.63
47166;BME280;32930;51.112;13.762;2023-02-03T01:59:01;99835.63;;;5.33;97.28
47166;BME280;32930;51.112;13.762;2023-02-03T02:01:29;99828.56;;;5.25;97.11
47166;BME280;32930;51.112;13.762;2023-02-03T02:03:59;99818.06;;;5.14;98.31
47166;BME280;32930;51.112;13.762;2023-02-03T02:14:02;99782.50;;;5.16;99.72
47166;BME280;32930;51.112;13.762;2023-02-03T02:16:55;99775.31;;;5.02;100.00
47166;BME280;32930;51.112;13.762;2023-02-03T02:22:23;99752.47;;;5.04;100.00
47166;BME280;32930;51.112;13.762;2023-02-03T02:28:25;99765.69;;;4.92;100.00
47166;BME280;32930;51.112;13.762;2023-02-03T02:40:34;99740.00;;;5.11;99.61
47166;BME280;32930;51.112;13.762;2023-02-03T02:51:07;99699.63;;;5.22;99.52
47166;BME280;32930;51.112;13.762;2023-02-03T02:53:42;99692.16;;;4.98;100.00
47166;BME280;32930;51.112;13.762;2023-02-03T02:56:13;99673.59;;;5.01;100.00
47166;BME280;32930;51.112;13.762;2023-02-03T02:58:43;99682.94;;;5.02;100.00
47166;BME280;32930;51.112;13.762;2023-02-03T03:03:46;99649.16;;;5.06;100.00
47166;BME280;32930;51.112;13.762;2023-02-03T03:10:12;99640.97;;;5.16;100.00
47166;BME280;32930;51.112;13.762;2023-02-03T03:14:36;99623.34;;;5.22;100.00
47166;BME280;32930;51.112;13.762;2023-02-03T03:19:46;99620.06;;;5.26;100.00
47166;BME280;32930;51.112;13.762;2023-02-03T03:27:37;99616.13;;;5.06;100.00
47166;BME280;32930;51.112;13.762;2023-02-03T03:32:44;99610.47;;;5.16;100.00
47166;BME280;32930;51.112;13.762;2023-02-03T03:35:09;99610.47;;;5.16;100.00
47166;BME280;32930;51.112;13.762;2023-02-03T03:37:59;99610.19;;;5.37;100.00
47166;BME280;32930;51.112;13.762;2023-02-03T03:40:44;99609.41;;;5.40;100.00
47166;BME280;32930;51.112;13.762;2023-02-03T03:43:20;99605.31;;;5.45;100.00
47166;BME280;32930;51.112;13.762;2023-02-03T04:58:03;99461.63;;;6.41;100.00
47166;BME280;32930;51.112;13.762;2023-02-03T05:00:29;99460.53;;;6.30;100.00
47166;BME280;32930;51.112;13.762;2023-02-03T05:06:16;99453.16;;;6.42;100.00
47166;BME280;32930;51.112;13.762;2023-02-03T05:13:52;99438.13;;;6.54;100.00
47166;BME280;32930;51.112;13.762;2023-02-03T05:16:17;99432.91;;;6.48;100.00
47166;BME280;32930;51.112;13.762;2023-02-03T05:23:55;99421.91;;;6.50;100.00
47166;BME280;32930;51.112;13.762;2023-02-03T05:39:01;99398.41;;;6.65;100.00
47166;BME280;32930;51.112;13.762;2023-02-03T05:41:27;99400.81;;;6.58;100.00
47166;BME280;32930;51.112;13.762;2023-02-03T05:44:11;99406.06;;;6.65;100.00
47166;BME280;32930;51.112;13.762;2023-02-03T05:46:37;99399.16;;;6.61;100.00
47166;BME280;32930;51.112;13.762;2023-02-03T05:49:03;99392.31;;;6.59;100.00
47166;BME280;32930;51.112;13.762;2023-02-03T05:51:29;99406.94;;;6.67;100.00
47166;BME280;32930;51.112;13.762;2023-02-03T06:06:45;99401.81;;;6.66;100.00
47166;BME280;32930;51.112;13.762;2023-02-03T06:09:11;99407.94;;;6.76;100.00
47166;BME280;32930;51.112;13.762;2023-02-03T06:11:37;99411.22;;;6.68;100.00
47166;BME280;32930;51.112;13.762;2023-02-03T06:14:03;99408.13;;;6.86;100.00
47166;BME280;32930;51.112;13.762;2023-02-03T06:16:29;99397.75;;;6.76;100.00
47166;BME280;32930;51.112;13.762;2023-02-03T06:40:12;99365.69;;;6.90;100.00
47166;BME280;32930;51.112;13.762;2023-02-03T06:42:37;99362.38;;;6.95;100.00
47166;BME280;32930;51.112;13.762;2023-02-03T06:45:03;99355.53;;;6.91;100.00
47166;BME280;32930;51.112;13.762;2023-02-03T06:47:29;99352.22;;;6.97;100.00
47166;BME280;32930;51.112;13.762;2023-02-03T06:55:43;99324.00;;;6.86;100.00
47166;BME280;32930;51.112;13.762;2023-02-03T06:58:09;99318.09;;;6.89;100.00
47166;BME280;32930;51.112;13.762;2023-02-03T07:00:37;99313.84;;;6.89;100.00
47166;BME280;32930;51.112;13.762;2023-02-03T07:03:03;99318.16;;;6.93;100.00
47166;BME280;32930;51.112;13.762;2023-02-03T07:05:29;99320.03;;;7.04;100.00
47166;BME280;32930;51.112;13.762;2023-02-03T07:07:54;99304.53;;;6.93;100.00
47166;BME280;32930;51.112;13.762;2023-02-03T07:10:23;99313.28;;;7.09;100.00
47166;BME280;32930;51.112;13.762;2023-02-03T07:12:49;99298.03;;;7.10;100.00
47166;BME280;32930;51.112;13.762;2023-02-03T07:15:16;99302.13;;;7.02;100.00
47166;BME280;32930;51.112;13.762;2023-02-03T07:17:46;99303.78;;;6.99;100.00
47166;BME280;32930;51.112;13.762;2023-02-03T07:20:22;99303.00;;;7.03;100.00
47166;BME280;32930;51.112;13.762;2023-02-03T07:29:31;99297.19;;;7.11;100.00
47166;BME280;32930;51.112;13.762;2023-02-03T07:32:00;99309.03;;;7.06;100.00
47166;BME280;32930;51.112;13.762;2023-02-03T07:34:27;99310.50;;;6.93;100.00
47166;BME280;32930;51.112;13.762;2023-02-03T07:36:52;99310.84;;;7.15;100.00
47166;BME280;32930;51.112;13.762;2023-02-03T07:39:18;99310.88;;;7.18;100.00
47166;BME280;32930;51.112;13.762;2023-02-03T07:41:43;99305.63;;;7.07;100.00
47166;BME280;32930;51.112;13.762;2023-02-03T13:39:23;98962.81;;;7.86;100.00
47166;BME280;32930;51.112;13.762;2023-02-03T13:44:27;98968.78;;;7.82;100.00
47166;BME280;32930;51.112;13.762;2023-02-03T13:47:17;98973.91;;;7.85;100.00
47166;BME280;32930;51.112;13.762;2023-02-03T13:50:01;98986.63;;;7.80;100.00
47166;BME280;32930;51.112;13.762;2023-02-03T13:52:52;99008.69;;;7.74;100.00
47166;BME280;32930;51.112;13.762;2023-02-03T13:55:37;99023.19;;;7.78;99.51
47166;BME280;32930;51.112;13.762;2023-02-03T13:58:06;99017.22;;;7.77;99.45
47166;BME280;32930;51.112;13.762;2023-02-03T14:06:00;99045.19;;;7.62;92.76
47166;BME280;32930;51.112;13.762;2023-02-03T14:16:50;99073.03;;;7.40;85.99
47166;BME280;32930;51.112;13.762;2023-02-03T14:22:15;99073.19;;;7.56;87.65
47166;BME280;32930;51.112;13.762;2023-02-03T14:24:47;99085.78;;;7.40;86.53
47166;BME280;32930;51.112;13.762;2023-02-03T14:27:20;99079.19;;;7.59;86.66
47166;BME280;32930;51.112;13.762;2023-02-03T14:32:50;99079.91;;;7.45;86.23
47166;BME280;32930;51.112;13.762;2023-02-03T14:35:19;99073.09;;;7.45;86.41
47166;BME280;32930;51.112;13.762;2023-02-03T15:04:19;99128.50;;;7.55;81.85
47166;BME280;32930;51.112;13.762;2023-02-03T15:33:07;99137.91;;;6.88;99.78
47166;BME280;32930;51.112;13.762;2023-02-03T15:35:40;99142.31;;;7.01;99.80
47166;BME280;32930;51.112;13.762;2023-02-03T15:38:36;99140.66;;;7.05;96.62
47166;BME280;32930;51.112;13.762;2023-02-03T15:41:13;99149.13;;;7.01;95.50
47166;BME280;32930;51.112;13.762;2023-02-03T15:43:45;99151.56;;;6.93;95.35
47166;BME280;32930;51.112;13.762;2023-02-03T15:46:41;99151.69;;;7.02;95.82
47166;BME280;32930;51.112;13.762;2023-02-03T16:33:04;99217.72;;;7.45;87.51
47166;BME280;32930;51.112;13.762;2023-02-03T16:36:01;99217.63;;;7.40;87.47
47166;BME280;32930;51.112;13.762;2023-02-03T16:38:52;99217.50;;;7.31;88.15
47166;BME280;32930;51.112;13.762;2023-02-03T16:41:39;99222.78;;;7.41;88.16
47166;BME280;32930;51.112;13.762;2023-02-03T16:44:23;99227.91;;;7.45;87.88
47166;BME280;32930;51.112;13.762;2023-02-03T16:47:24;99229.53;;;7.39;85.84
47166;BME280;32930;51.112;13.762;2023-02-03T16:52:49;99226.09;;;7.37;86.30
47166;BME280;32930;51.112;13.762;2023-02-03T16:55:21;99215.97;;;7.43;86.66
47166;BME280;32930;51.112;13.762;2023-02-03T16:57:53;99228.72;;;7.43;85.42
47166;BME280;32930;51.112;13.762;2023-02-03T17:00:38;99233.03;;;7.45;85.45
47166;BME280;32930;51.112;13.762;2023-02-03T17:03:37;99246.66;;;7.48;82.51
47166;BME280;32930;51.112;13.762;2023-02-03T17:06:17;99250.88;;;7.45;82.19
47166;BME280;32930;51.112;13.762;2023-02-03T17:08:52;99259.34;;;7.42;82.09
47166;BME280;32930;51.112;13.762;2023-02-03T17:11:20;99253.22;;;7.31;83.04
47166;BME280;32930;51.112;13.762;2023-02-03T17:13:47;99273.88;;;7.48;83.83
47166;BME280;32930;51.112;13.762;2023-02-03T18:17:56;99325.66;;;7.40;78.86
47166;BME280;32930;51.112;13.762;2023-02-03T18:20:28;99329.09;;;7.42;78.37
47166;BME280;32930;51.112;13.762;2023-02-03T18:39:43;99355.47;;;7.43;74.56
47166;BME280;32930;51.112;13.762;2023-02-03T18:42:09;99351.31;;;7.48;72.98
47166;BME280;32930;51.112;13.762;2023-02-03T18:44:35;99353.78;;;7.43;73.11
47166;BME280;32930;51.112;13.762;2023-02-03T18:47:01;99351.94;;;7.33;75.58
47166;BME280;32930;51.112;13.762;2023-02-03T18:49:31;99348.56;;;7.37;74.64
47166;BME280;32930;51.112;13.762;2023-02-03T18:51:57;99358.78;;;7.36;73.92
47166;BME280;32930;51.112;13.762;2023-02-03T19:17:56;99366.03;;;7.11;80.79
47166;BME280;32930;51.112;13.762;2023-02-03T19:20:22;99359.34;;;7.18;78.91
47166;BME280;32930;51.112;13.762;2023-02-03T19:22:48;99360.34;;;7.28;77.71
47166;BME280;32930;51.112;13.762;2023-02-03T19:25:14;99355.16;;;7.22;77.00
47166;BME280;32930;51.112;13.762;2023-02-03T19:40:18;99368.00;;;7.28;77.24
47166;BME280;32930;51.112;13.762;2023-02-03T19:45:26;99373.84;;;7.19;80.41
47166;BME280;32930;51.112;13.762;2023-02-03T19:47:52;99377.19;;;7.16;80.47
47166;BME280;32930;51.112;13.762;2023-02-03T19:50:17;99381.44;;;7.16;81.31
47166;BME280;32930;51.112;13.762;2023-02-03T19:52:43;99370.13;;;7.00;82.88
47166;BME280;32930;51.112;13.762;2023-02-03T19:55:09;99382.72;;;6.92;84.70
47166;BME280;32930;51.112;13.762;2023-02-03T19:57:34;99382.78;;;6.94;84.22
47166;BME280;32930;51.112;13.762;2023-02-03T20:00:00;99382.78;;;6.95;84.09
47166;BME280;32930;51.112;13.762;2023-02-03T20:02:25;99378.78;;;7.10;82.71
47166;BME280;32930;51.112;13.762;2023-02-03T20:04:52;99384.81;;;7.15;81.83
47166;BME280;32930;51.112;13.762;2023-02-03T20:07:18;99382.97;;;7.06;81.72
47166;BME280;32930;51.112;13.762;2023-02-03T20:09:44;99388.84;;;7.02;81.70
47166;BME280;32930;51.112;13.762;2023-02-03T20:12:10;99388.09;;;7.06;82.82
47166;BME280;32930;51.112;13.762;2023-02-03T20:14:36;99398.50;;;7.22;81.34
47166;BME280;32930;51.112;13.762;2023-02-03T20:17:01;99391.34;;;6.99;84.92
47166;BME280;32930;51.112;13.762;2023-02-03T20:19:29;99384.88;;;6.69;86.44
47166;BME280;32930;51.112;13.762;2023-02-03T20:21:54;99396.16;;;6.84;86.55
47166;BME280;32930;51.112;13.762;2023-02-03T20:24:20;99389.31;;;6.80;88.07
47166;BME280;32930;51.112;13.762;2023-02-03T20:26:46;99397.34;;;7.01;87.06
47166;BME280;32930;51.112;13.762;2023-02-03T20:29:12;99387.59;;;6.79;87.74
47166;BME280;32930;51.112;13.762;2023-02-03T20:31:37;99389.47;;;6.87;88.19
47166;BME280;32930;51.112;13.762;2023-02-03T20:34:03;99391.84;;;6.78;89.76
47166;BME280;32930;51.112;13.762;2023-02-03T20:36:28;99399.38;;;6.72;90.55
47166;BME280;32930;51.112;13.762;2023-02-03T20:38:54;99394.63;;;6.93;90.80
47166;BME280;32930;51.112;13.762;2023-02-03T20:41:19;99391.97;;;6.86;91.05
47166;BME280;32930;51.112;13.762;2023-02-03T20:43:45;99388.94;;;7.07;90.91
47166;BME280;32930;51.112;13.762;2023-02-03T20:46:13;99395.56;;;6.97;91.48
47166;BME280;32930;51.112;13.762;2023-02-03T20:48:57;99379.97;;;6.80;93.85
47166;BME280;32930;51.112;13.762;2023-02-03T20:51:28;99374.13;;;6.84;92.93
47166;BME280;32930;51.112;13.762;2023-02-03T20:54:17;99388.56;;;6.87;92.61
47166;BME280;32930;51.112;13.762;2023-02-03T20:56:44;99385.19;;;6.86;93.71
47166;BME280;32930;51.112;13.762;2023-02-03T20:59:22;99384.25;;;6.83;93.83
47166;BME280;32930;51.112;13.762;2023-02-03T21:01:48;99391.97;;;6.84;94.18
47166;BME280;32930;51.112;13.762;2023-02-03T21:04:16;99390.16;;;6.79;93.66
47166;BME280;32930;51.112;13.762;2023-02-03T21:07:15;99402.22;;;6.87;93.61
47166;BME280;32930;51.112;13.762;2023-02-03T21:09:42;99409.06;;;6.91;95.24
47166;BME280;32930;51.112;13.762;2023-02-03T21:12:12;99412.97;;;6.72;95.93
47166;BME280;32930;51.112;13.762;2023-02-03T21:14:41;99409.53;;;6.69;97.92
47166;BME280;32930;51.112;13.762;2023-02-03T21:17:24;99398.59;;;6.78;98.58
47166;BME280;32930;51.112;13.762;2023-02-03T21:20:05;99398.66;;;6.79;99.26
47166;BME280;32930;51.112;13.762;2023-02-03T21:22:38;99390.84;;;6.70;98.94
47166;BME280;32930;51.112;13.762;2023-02-03T21:25:30;99395.13;;;6.72;99.42
47166;BME280;32930;51.112;13.762;2023-02-03T21:30:30;99385.63;;;6.62;100.00
47166;BME280;32930;51.112;13.762;2023-02-03T21:32:57;99397.66;;;6.71;100.00
47166;BME280;32930;51.112;13.762;2023-02-03T21:35:28;99388.19;;;6.64;100.00
47166;BME280;32930;51.112;13.762;2023-02-03T21:38:00;99402.56;;;6.60;100.00
47166;BME280;32930;51.112;13.762;2023-02-03T21:46:26;99408.44;;;6.56;100.00
47166;BME280;32930;51.112;13.762;2023-02-03T21:51:33;99406.75;;;6.57;100.00
47166;BME280;32930;51.112;13.762;2023-02-03T21:54:04;99425.66;;;6.69;100.00
47166;BME280;32930;51.112;13.762;2023-02-03T21:56:56;99423.22;;;6.76;100.00
47166;BME280;32930;51.112;13.762;2023-02-03T21:59:26;99422.94;;;6.60;100.00
47166;BME280;32930;51.112;13.762;2023-02-03T22:02:00;99420.28;;;6.54;100.00
47166;BME280;32930;51.112;13.762;2023-02-03T22:04:28;99421.34;;;6.65;100.00
47166;BME280;32930;51.112;13.762;2023-02-03T22:06:54;99435.75;;;6.65;100.00
47166;BME280;32930;51.112;13.762;2023-02-03T22:09:26;99439.88;;;6.57;100.00
47166;BME280;32930;51.112;13.762;2023-02-03T22:11:52;99450.06;;;6.57;100.00
47166;BME280;32930;51.112;13.762;2023-02-03T22:14:19;99445.81;;;6.57;100.00
47166;BME280;32930;51.112;13.762;2023-02-03T22:16:48;99448.31;;;6.54;100.00
47166;BME280;32930;51.112;13.762;2023-02-03T22:19:16;99453.53;;;6.60;100.00
47166;BME280;32930;51.112;13.762;2023-02-03T22:21:42;99451.63;;;6.50;100.00
47166;BME280;32930;51.112;13.762;2023-02-03T22:24:07;99444.84;;;6.50;100.00
47166;BME280;32930;51.112;13.762;2023-02-03T22:35:06;99442.38;;;6.54;100.00
47166;BME280;32930;51.112;13.762;2023-02-03T22:37:35;99449.03;;;6.47;100.00
47166;BME280;32930;51.112;13.762;2023-02-03T22:40:02;99444.53;;;6.35;100.00
47166;BME280;32930;51.112;13.762;2023-02-03T22:42:28;99463.59;;;6.53;100.00
47166;BME280;32930;51.112;13.762;2023-02-03T22:44:54;99448.72;;;6.33;100.00
47166;BME280;32930;51.112;13.762;2023-02-03T22:47:20;99456.66;;;6.47;100.00
47166;BME280;32930;51.112;13.762;2023-02-03T22:49:46;99457.59;;;6.52;100.00
47166;BME280;32930;51.112;13.762;2023-02-03T22:52:12;99453.22;;;6.45;100.00
47166;BME280;32930;51.112;13.762;2023-02-03T22:54:37;99458.50;;;6.54;100.00
47166;BME280;32930;51.112;13.762;2023-02-03T22:57:03;99452.56;;;6.54;100.00
47166;BME280;32930;51.112;13.762;2023-02-03T23:08:13;99467.59;;;6.41;100.00
47166;BME280;32930;51.112;13.762;2023-02-03T23:10:39;99473.94;;;6.62;100.00
47166;BME280;32930;51.112;13.762;2023-02-03T23:13:04;99479.69;;;6.52;100.00
47166;BME280;32930;51.112;13.762;2023-02-03T23:15:33;99473.00;;;6.57;100.00
47166;BME280;32930;51.112;13.762;2023-02-03T23:17:58;99473.06;;;6.61;100.00
47166;BME280;32930;51.112;13.762;2023-02-03T23:20:24;99466.34;;;6.63;100.00
47166;BME280;32930;51.112;13.762;2023-02-03T23:22:50;99478.88;;;6.53;100.00
47166;BME280;32930;51.112;13.762;2023-02-03T23:25:15;99479.53;;;6.44;100.00
47166;BME280;32930;51.112;13.762;2023-02-03T23:27:41;99461.63;;;6.41;100.00
47166;BME280;32930;51.112;13.762;2023-02-03T23:30:11;99469.53;;;6.53;100.00
47166;BME280;32930;51.112;13.762;2023-02-03T23:32:37;99467.59;;;6.43;100.00
47166;BME280;32930;51.112;13.762;2023-02-03T23:41:48;99499.72;;;6.35;100.00
47166;BME280;32930;51.112;13.762;2023-02-03T23:44:14;99514.50;;;6.49;100.00
